sensor_id;sensor_type;location;lat;lon;timestamp;P1;P2;P0
65383;PMS5003;51986;52.788;41.368;2023-01-20T00:01:36;5.00;3.00;0.00
65383;PMS5003;51986;52.788;41.368;2023-01-20T00:04:05;4.00;3.00;1.00
65383;PMS5003;51986;52.788;41.368;2023-01-20T00:06:32;4.00;3.00;1.00
65383;PMS5003;51986;52.788;41.368;2023-01-20T00:09:00;4.75;4.00;1.00
65383;PMS5003;51986;52.788;41.368;2023-01-20T00:11:29;4.00;3.25;1.00
65383;PMS5003;51986;52.788;41.368;2023-01-20T00:13:57;2.00;2.00;1.00
65383;PMS5003;51986;52.788;41.368;2023-01-20T00:16:26;5.00;4.00;3.00
65383;PMS5003;51986;52.788;41.368;2023-01-20T00:18:53;5.00;5.00;1.00
65383;PMS5003;51986;52.788;41.368;2023-01-20T00:21:21;4.75;3.00;1.00
65383;PMS5003;51986;52.788;41.368;2023-01-20T00:23:48;5.00;5.00;1.00
65383;PMS5003;51986;52.788;41.368;2023-01-20T00:26:17;4.25;4.00;1.75
65383;PMS5003;51986;52.788;41.368;2023-01-20T00:28:45;2.25;2.00;0.00
65383;PMS5003;51986;52.788;41.368;2023-01-20T00:31:14;3.00;2.00;1.00
65383;PMS5003;51986;52.788;41.368;2023-01-20T00:33:53;5.00;4.75;2.50
65383;PMS5003;51986;52.788;41.368;2023-01-20T00:36:22;5.25;3.00;1.00
65383;PMS5003;51986;52.788;41.368;2023-01-20T00:38:51;5.25;4.25;2.00
65383;PMS5003;51986;52.788;41.368;2023-01-20T00:41:18;3.00;2.00;0.00
65383;PMS5003;51986;52.788;41.368;2023-01-20T00:43:45;2.00;2.00;0.00
65383;PMS5003;51986;52.788;41.368;2023-01-20T00:46:12;1.00;1.00;0.00
65383;PMS5003;51986;52.788;41.368;2023-01-20T00:48:40;1.75;1.00;0.00
65383;PMS5003;51986;52.788;41.368;2023-01-20T00:51:07;7.00;4.75;2.75
65383;PMS5003;51986;52.788;41.368;2023-01-20T00:53:35;3.00;1.50;1.00
65383;PMS5003;51986;52.788;41.368;2023-01-20T00:56:03;1.00;1.00;1.00
65383;PMS5003;51986;52.788;41.368;2023-01-20T00:58:30;4.00;4.00;2.00
65383;PMS5003;51986;52.788;41.368;2023-01-20T01:00:57;5.00;3.00;1.00
65383;PMS5003;51986;52.788;41.368;2023-01-20T01:03:25;5.00;4.25;1.75
65383;PMS5003;51986;52.788;41.368;2023-01-20T01:05:52;3.00;3.00;1.00
65383;PMS5003;51986;52.788;41.368;2023-01-20T01:08:19;2.50;1.50;0.00
65383;PMS5003;51986;52.788;41.368;2023-01-20T01:10:47;3.25;3.00;1.00
65383;PMS5003;51986;52.788;41.368;2023-01-20T01:13:13;2.25;1.00;0.50
65383;PMS5003;51986;52.788;41.368;2023-01-20T01:15:46;2.00;2.00;1.00
65383;PMS5003;51986;52.788;41.368;2023-01-20T01:18:14;2.00;2.00;0.25
65383;PMS5003;51986;52.788;41.368;2023-01-20T01:20:41;1.00;1.00;0.00
65383;PMS5003;51986;52.788;41.368;2023-01-20T01:23:08;3.25;3.00;0.00
65383;PMS5003;51986;52.788;41.368;2023-01-20T01:25:35;5.00;5.00;2.00
65383;PMS5003;51986;52.788;41.368;2023-01-20T01:28:03;2.25;1.25;0.00
65383;PMS5003;51986;52.788;41.368;2023-01-20T01:30:30;3.00;2.50;1.00
65383;PMS5003;51986;52.788;41.368;2023-01-20T01:32:57;5.00;4.00;3.00
65383;PMS5003;51986;52.788;41.368;2023-01-20T01:35:24;3.00;2.75;1.00
65383;PMS5003;51986;52.788;41.368;2023-01-20T01:37:51;1.75;1.00;0.00
65383;PMS5003;51986;52.788;41.368;2023-01-20T01:40:18;3.00;2.25;0.25
65383;PMS5003;51986;52.788;41.368;2023-01-20T01:42:45;3.00;2.00;0.00
65383;PMS5003;51986;52.788;41.368;2023-01-20T01:50:20;3.00;1.75;0.00
65383;PMS5003;51986;52.788;41.368;2023-01-20T01:52:54;1.00;1.00;0.00
65383;PMS5003;51986;52.788;41.368;2023-01-20T01:55:23;4.00;3.00;0.25
65383;PMS5003;51986;52.788;41.368;2023-01-20T01:57:55;3.00;1.75;0.00
65383;PMS5003;51986;52.788;41.368;2023-01-20T02:00:24;2.00;2.00;0.00
65383;PMS5003;51986;52.788;41.368;2023-01-20T02:02:51;2.00;2.00;0.00
65383;PMS5003;51986;52.788;41.368;2023-01-20T02:05:20;3.00;3.00;0.00
65383;PMS5003;51986;52.788;41.368;2023-01-20T02:07:49;4.00;3.00;1.00
65383;PMS5003;51986;52.788;41.368;2023-01-20T02:10:17;3.00;2.75;0.75
65383;PMS5003;51986;52.788;41.368;2023-01-20T02:12:45;3.00;1.75;0.00
65383;PMS5003;51986;52.788;41.368;2023-01-20T02:15:14;3.50;2.75;0.00
65383;PMS5003;51986;52.788;41.368;2023-01-20T02:20:28;1.75;1.50;1.00
65383;PMS5003;51986;52.788;41.368;2023-01-20T02:40:40;1.00;1.00;0.00
65383;PMS5003;51986;52.788;41.368;2023-01-20T02:45:44;4.00;3.00;0.00
65383;PMS5003;51986;52.788;41.368;2023-01-20T02:54:09;4.00;3.00;1.00
65383;PMS5003;51986;52.788;41.368;2023-01-20T02:56:40;2.00;2.00;1.00
65383;PMS5003;51986;52.788;41.368;2023-01-20T02:59:12;2.00;2.00;1.00
65383;PMS5003;51986;52.788;41.368;2023-01-20T03:04:17;2.25;1.00;1.00
65383;PMS5003;51986;52.788;41.368;2023-01-20T03:06:49;1.00;0.00;0.00
65383;PMS5003;51986;52.788;41.368;2023-01-20T03:09:20;2.00;1.00;0.00
65383;PMS5003;51986;52.788;41.368;2023-01-20T03:11:55;1.00;0.00;0.00
65383;PMS5003;51986;52.788;41.368;2023-01-20T03:14:26;1.25;1.00;0.00
65383;PMS5003;51986;52.788;41.368;2023-01-20T03:16:53;3.00;3.00;0.00
65383;PMS5003;51986;52.788;41.368;2023-01-20T03:19:20;5.00;4.00;0.00
65383;PMS5003;51986;52.788;41.368;2023-01-20T03:21:47;3.50;3.25;1.00
65383;PMS5003;51986;52.788;41.368;2023-01-20T03:24:14;2.00;1.00;0.00
65383;PMS5003;51986;52.788;41.368;2023-01-20T03:26:41;3.00;2.00;0.75
65383;PMS5003;51986;52.788;41.368;2023-01-20T03:29:09;1.00;0.75;0.00
65383;PMS5003;51986;52.788;41.368;2023-01-20T03:31:40;3.00;2.00;0.00
65383;PMS5003;51986;52.788;41.368;2023-01-20T03:34:17;3.25;2.50;1.00
65383;PMS5003;51986;52.788;41.368;2023-01-20T03:36:47;1.00;1.00;1.00
65383;PMS5003;51986;52.788;41.368;2023-01-20T03:39:15;0.00;0.00;0.00
65383;PMS5003;51986;52.788;41.368;2023-01-20T03:41:48;2.00;1.00;0.00
65383;PMS5003;51986;52.788;41.368;2023-01-20T03:44:44;2.25;1.00;1.00
65383;PMS5003;51986;52.788;41.368;2023-01-20T03:55:49;1.00;1.00;0.00
65383;PMS5003;51986;52.788;41.368;2023-01-20T03:58:24;1.25;0.00;0.00
65383;PMS5003;51986;52.788;41.368;2023-01-20T04:00:56;0.00;0.00;0.00
65383;PMS5003;51986;52.788;41.368;2023-01-20T04:03:44;1.00;1.00;0.00
65383;PMS5003;51986;52.788;41.368;2023-01-20T04:06:14;0.00;0.00;0.00
65383;PMS5003;51986;52.788;41.368;2023-01-20T04:08:45;1.00;0.00;0.00
65383;PMS5003;51986;52.788;41.368;2023-01-20T04:11:17;0.00;0.00;0.00
65383;PMS5003;51986;52.788;41.368;2023-01-20T04:13:44;0.00;0.00;0.00
65383;PMS5003;51986;52.788;41.368;2023-01-20T04:16:12;0.00;0.00;0.00
65383;PMS5003;51986;52.788;41.368;2023-01-20T04:18:45;0.50;0.00;0.00
65383;PMS5003;51986;52.788;41.368;2023-01-20T04:23:49;0.00;0.00;0.00
65383;PMS5003;51986;52.788;41.368;2023-01-20T04:26:23;0.75;0.25;0.00
65383;PMS5003;51986;52.788;41.368;2023-01-20T04:28:50;0.00;0.00;0.00
65383;PMS5003;51986;52.788;41.368;2023-01-20T04:31:17;1.00;1.00;0.00
65383;PMS5003;51986;52.788;41.368;2023-01-20T04:33:56;0.00;0.00;0.00
65383;PMS5003;51986;52.788;41.368;2023-01-20T04:36:22;0.00;0.00;0.00
65383;PMS5003;51986;52.788;41.368;2023-01-20T04:38:50;0.00;0.00;0.00
65383;PMS5003;51986;52.788;41.368;2023-01-20T04:41:16;1.25;1.00;0.00
65383;PMS5003;51986;52.788;41.368;2023-01-20T04:43:44;0.25;0.00;0.00
65383;PMS5003;51986;52.788;41.368;2023-01-20T04:46:12;0.00;0.00;0.00
65383;PMS5003;51986;52.788;41.368;2023-01-20T04:48:40;1.00;1.00;0.00
65383;PMS5003;51986;52.788;41.368;2023-01-20T04:51:09;0.00;0.00;0.00
65383;PMS5003;51986;52.788;41.368;2023-01-20T04:53:36;1.00;1.00;0.00
65383;PMS5003;51986;52.788;41.368;2023-01-20T04:56:03;1.00;0.75;0.00
65383;PMS5003;51986;52.788;41.368;2023-01-20T04:58:35;1.75;1.75;0.00
65383;PMS5003;51986;52.788;41.368;2023-01-20T05:01:02;4.00;2.00;0.00
65383;PMS5003;51986;52.788;41.368;2023-01-20T05:03:29;3.00;2.50;0.00
65383;PMS5003;51986;52.788;41.368;2023-01-20T05:05:56;1.00;0.00;0.00
65383;PMS5003;51986;52.788;41.368;2023-01-20T05:08:23;0.00;0.00;0.00
65383;PMS5003;51986;52.788;41.368;2023-01-20T05:10:50;1.00;0.25;0.00
65383;PMS5003;51986;52.788;41.368;2023-01-20T05:13:17;1.00;1.00;0.00
65383;PMS5003;51986;52.788;41.368;2023-01-20T05:15:44;0.00;0.00;0.00
65383;PMS5003;51986;52.788;41.368;2023-01-20T05:18:11;0.00;0.00;0.00
65383;PMS5003;51986;52.788;41.368;2023-01-20T05:20:38;0.00;0.00;0.00
65383;PMS5003;51986;52.788;41.368;2023-01-20T05:23:05;0.00;0.00;0.00
65383;PMS5003;51986;52.788;41.368;2023-01-20T05:25:32;0.00;0.00;0.00
65383;PMS5003;51986;52.788;41.368;2023-01-20T05:27:59;0.75;0.00;0.00
65383;PMS5003;51986;52.788;41.368;2023-01-20T05:30:26;0.75;0.00;0.00
65383;PMS5003;51986;52.788;41.368;2023-01-20T05:32:53;0.00;0.00;0.00
65383;PMS5003;51986;52.788;41.368;2023-01-20T05:35:20;0.00;0.00;0.00
65383;PMS5003;51986;52.788;41.368;2023-01-20T05:37:47;0.00;0.00;0.00
65383;PMS5003;51986;52.788;41.368;2023-01-20T05:40:17;0.50;0.00;0.00
65383;PMS5003;51986;52.788;41.368;2023-01-20T05:42:44;0.00;0.00;0.00
65383;PMS5003;51986;52.788;41.368;2023-01-20T05:45:11;0.00;0.00;0.00
65383;PMS5003;51986;52.788;41.368;2023-01-20T05:47:38;0.00;0.00;0.00
65383;PMS5003;51986;52.788;41.368;2023-01-20T05:50:06;0.75;0.00;0.00
65383;PMS5003;51986;52.788;41.368;2023-01-20T05:52:33;0.75;0.00;0.00
65383;PMS5003;51986;52.788;41.368;2023-01-20T05:55:00;3.00;1.25;0.00
65383;PMS5003;51986;52.788;41.368;2023-01-20T05:57:27;1.00;0.00;0.00
65383;PMS5003;51986;52.788;41.368;2023-01-20T05:59:54;1.00;0.00;0.00
65383;PMS5003;51986;52.788;41.368;2023-01-20T06:02:21;1.75;1.00;0.00
65383;PMS5003;51986;52.788;41.368;2023-01-20T06:04:48;0.00;0.00;0.00
65383;PMS5003;51986;52.788;41.368;2023-01-20T06:07:14;1.00;0.00;0.00
65383;PMS5003;51986;52.788;41.368;2023-01-20T06:09:41;0.50;0.00;0.00
65383;PMS5003;51986;52.788;41.368;2023-01-20T06:12:08;0.00;0.00;0.00
65383;PMS5003;51986;52.788;41.368;2023-01-20T06:14:36;0.75;0.00;0.00
65383;PMS5003;51986;52.788;41.368;2023-01-20T06:17:02;0.00;0.00;0.00
65383;PMS5003;51986;52.788;41.368;2023-01-20T06:19:29;0.00;0.00;0.00
65383;PMS5003;51986;52.788;41.368;2023-01-20T06:21:56;0.00;0.00;0.00
65383;PMS5003;51986;52.788;41.368;2023-01-20T06:24:23;1.00;0.00;0.00
65383;PMS5003;51986;52.788;41.368;2023-01-20T06:26:50;0.00;0.00;0.00
65383;PMS5003;51986;52.788;41.368;2023-01-20T06:29:17;0.00;0.00;0.00
65383;PMS5003;51986;52.788;41.368;2023-01-20T06:31:44;0.00;0.00;0.00
65383;PMS5003;51986;52.788;41.368;2023-01-20T06:34:11;1.00;0.00;0.00
65383;PMS5003;51986;52.788;41.368;2023-01-20T06:36:38;0.00;0.00;0.00
65383;PMS5003;51986;52.788;41.368;2023-01-20T06:39:05;1.25;1.25;0.00
65383;PMS5003;51986;52.788;41.368;2023-01-20T06:41:32;2.00;1.00;0.00
65383;PMS5003;51986;52.788;41.368;2023-01-20T06:43:59;1.00;1.00;0.00
65383;PMS5003;51986;52.788;41.368;2023-01-20T06:46:26;1.50;1.25;0.00
65383;PMS5003;51986;52.788;41.368;2023-01-20T06:48:53;1.00;1.00;0.00
65383;PMS5003;51986;52.788;41.368;2023-01-20T06:51:20;0.00;0.00;0.00
65383;PMS5003;51986;52.788;41.368;2023-01-20T06:53:47;0.00;0.00;0.00
65383;PMS5003;51986;52.788;41.368;2023-01-20T06:56:14;0.00;0.00;0.00
65383;PMS5003;51986;52.788;41.368;2023-01-20T06:58:41;0.00;0.00;0.00
65383;PMS5003;51986;52.788;41.368;2023-01-20T07:01:17;0.00;0.00;0.00
65383;PMS5003;51986;52.788;41.368;2023-01-20T07:03:48;0.75;0.25;0.00
65383;PMS5003;51986;52.788;41.368;2023-01-20T07:08:56;1.00;1.00;0.00
65383;PMS5003;51986;52.788;41.368;2023-01-20T07:11:24;1.00;1.00;0.00
65383;PMS5003;51986;52.788;41.368;2023-01-20T07:13:52;1.00;1.00;0.00
65383;PMS5003;51986;52.788;41.368;2023-01-20T07:16:19;0.00;0.00;0.00
65383;PMS5003;51986;52.788;41.368;2023-01-20T07:18:46;0.00;0.00;0.00
65383;PMS5003;51986;52.788;41.368;2023-01-20T07:21:15;1.00;1.00;0.00
65383;PMS5003;51986;52.788;41.368;2023-01-20T07:23:43;0.00;0.00;0.00
65383;PMS5003;51986;52.788;41.368;2023-01-20T07:26:11;0.00;0.00;0.00
65383;PMS5003;51986;52.788;41.368;2023-01-20T07:28:40;0.75;0.00;0.00
65383;PMS5003;51986;52.788;41.368;2023-01-20T07:31:08;0.00;0.00;0.00
65383;PMS5003;51986;52.788;41.368;2023-01-20T07:33:47;1.00;1.00;0.00
65383;PMS5003;51986;52.788;41.368;2023-01-20T07:36:15;0.00;0.00;0.00
65383;PMS5003;51986;52.788;41.368;2023-01-20T07:38:43;0.00;0.00;0.00
65383;PMS5003;51986;52.788;41.368;2023-01-20T07:41:12;0.50;0.00;0.00
65383;PMS5003;51986;52.788;41.368;2023-01-20T07:43:39;0.00;0.00;0.00
65383;PMS5003;51986;52.788;41.368;2023-01-20T07:46:07;0.00;0.00;0.00
65383;PMS5003;51986;52.788;41.368;2023-01-20T07:48:35;0.00;0.00;0.00
65383;PMS5003;51986;52.788;41.368;2023-01-20T07:51:05;1.50;0.00;0.00
65383;PMS5003;51986;52.788;41.368;2023-01-20T07:53:34;1.25;1.00;0.00
65383;PMS5003;51986;52.788;41.368;2023-01-20T07:56:09;1.00;0.50;0.00
65383;PMS5003;51986;52.788;41.368;2023-01-20T07:58:38;0.00;0.00;0.00
65383;PMS5003;51986;52.788;41.368;2023-01-20T08:01:08;1.00;0.00;0.00
65383;PMS5003;51986;52.788;41.368;2023-01-20T08:03:41;1.00;0.00;0.00
65383;PMS5003;51986;52.788;41.368;2023-01-20T08:06:10;1.00;1.00;0.00
65383;PMS5003;51986;52.788;41.368;2023-01-20T08:08:38;1.00;1.00;0.00
65383;PMS5003;51986;52.788;41.368;2023-01-20T08:11:06;1.00;1.00;0.00
65383;PMS5003;51986;52.788;41.368;2023-01-20T08:13:33;1.25;1.00;0.00
65383;PMS5003;51986;52.788;41.368;2023-01-20T08:16:01;2.00;1.00;0.00
65383;PMS5003;51986;52.788;41.368;2023-01-20T08:18:30;0.00;0.00;0.00
65383;PMS5003;51986;52.788;41.368;2023-01-20T08:20:58;1.00;1.00;0.00
65383;PMS5003;51986;52.788;41.368;2023-01-20T08:23:25;3.50;3.00;1.50
65383;PMS5003;51986;52.788;41.368;2023-01-20T08:25:59;3.00;2.25;1.00
65383;PMS5003;51986;52.788;41.368;2023-01-20T08:28:28;1.00;0.00;0.00
65383;PMS5003;51986;52.788;41.368;2023-01-20T08:31:05;2.00;1.00;0.00
65383;PMS5003;51986;52.788;41.368;2023-01-20T08:33:38;1.00;1.00;0.00
65383;PMS5003;51986;52.788;41.368;2023-01-20T08:36:07;2.00;1.00;0.00
65383;PMS5003;51986;52.788;41.368;2023-01-20T08:38:36;0.50;0.00;0.00
65383;PMS5003;51986;52.788;41.368;2023-01-20T08:41:13;1.00;1.00;0.00
65383;PMS5003;51986;52.788;41.368;2023-01-20T08:43:49;3.00;2.25;0.00
65383;PMS5003;51986;52.788;41.368;2023-01-20T08:46:17;1.00;0.00;0.00
65383;PMS5003;51986;52.788;41.368;2023-01-20T08:48:47;3.00;1.50;0.00
65383;PMS5003;51986;52.788;41.368;2023-01-20T08:51:16;2.00;2.00;1.00
65383;PMS5003;51986;52.788;41.368;2023-01-20T08:53:46;1.00;1.00;0.00
65383;PMS5003;51986;52.788;41.368;2023-01-20T08:56:13;0.00;0.00;0.00
65383;PMS5003;51986;52.788;41.368;2023-01-20T08:58:41;3.00;3.00;0.50
65383;PMS5003;51986;52.788;41.368;2023-01-20T09:01:12;3.00;3.00;1.50
65383;PMS5003;51986;52.788;41.368;2023-01-20T09:03:41;1.25;1.25;1.00
65383;PMS5003;51986;52.788;41.368;2023-01-20T09:06:24;1.50;1.50;1.00
65383;PMS5003;51986;52.788;41.368;2023-01-20T09:08:52;1.00;1.00;0.00
65383;PMS5003;51986;52.788;41.368;2023-01-20T09:11:20;0.00;0.00;0.00
65383;PMS5003;51986;52.788;41.368;2023-01-20T09:13:48;3.00;2.25;0.25
65383;PMS5003;51986;52.788;41.368;2023-01-20T09:16:18;1.00;1.00;1.00
65383;PMS5003;51986;52.788;41.368;2023-01-20T09:18:45;1.00;0.00;0.00
65383;PMS5003;51986;52.788;41.368;2023-01-20T09:21:12;2.00;1.00;0.00
65383;PMS5003;51986;52.788;41.368;2023-01-20T09:23:39;3.00;2.75;0.75
65383;PMS5003;51986;52.788;41.368;2023-01-20T09:26:07;1.00;1.00;0.00
65383;PMS5003;51986;52.788;41.368;2023-01-20T09:28:35;1.00;1.00;0.00
65383;PMS5003;51986;52.788;41.368;2023-01-20T09:31:06;1.25;1.25;0.00
65383;PMS5003;51986;52.788;41.368;2023-01-20T09:33:35;1.00;1.00;1.00
65383;PMS5003;51986;52.788;41.368;2023-01-20T09:36:04;2.50;2.25;1.00
65383;PMS5003;51986;52.788;41.368;2023-01-20T09:38:33;3.00;3.00;1.00
65383;PMS5003;51986;52.788;41.368;2023-01-20T09:41:46;1.50;1.50;1.00
65383;PMS5003;51986;52.788;41.368;2023-01-20T09:44:39;2.00;1.75;1.00
65383;PMS5003;51986;52.788;41.368;2023-01-20T09:47:28;1.00;1.00;1.00
65383;PMS5003;51986;52.788;41.368;2023-01-20T09:52:43;3.00;2.00;0.00
65383;PMS5003;51986;52.788;41.368;2023-01-20T09:55:15;3.00;3.00;2.75
65383;PMS5003;51986;52.788;41.368;2023-01-20T09:57:47;2.00;2.00;2.00
65383;PMS5003;51986;52.788;41.368;2023-01-20T10:00:21;3.00;3.00;1.00
65383;PMS5003;51986;52.788;41.368;2023-01-20T10:02:55;3.00;2.00;1.00
65383;PMS5003;51986;52.788;41.368;2023-01-20T10:05:32;3.00;3.00;1.00
65383;PMS5003;51986;52.788;41.368;2023-01-20T10:10:41;1.00;1.00;1.00
65383;PMS5003;51986;52.788;41.368;2023-01-20T10:13:24;3.00;2.25;1.00
65383;PMS5003;51986;52.788;41.368;2023-01-20T10:15:56;2.00;2.00;1.00
65383;PMS5003;51986;52.788;41.368;2023-01-20T10:18:39;1.25;1.25;1.00
65383;PMS5003;51986;52.788;41.368;2023-01-20T10:21:21;1.00;1.00;1.00
65383;PMS5003;51986;52.788;41.368;2023-01-20T10:24:31;1.00;1.00;0.00
65383;PMS5003;51986;52.788;41.368;2023-01-20T10:26:59;3.00;3.00;1.00
65383;PMS5003;51986;52.788;41.368;2023-01-20T10:32:09;5.00;4.50;2.00
65383;PMS5003;51986;52.788;41.368;2023-01-20T10:35:01;1.00;1.00;0.00
65383;PMS5003;51986;52.788;41.368;2023-01-20T10:37:49;0.00;0.00;0.00
65383;PMS5003;51986;52.788;41.368;2023-01-20T10:43:10;3.00;3.00;1.00
65383;PMS5003;51986;52.788;41.368;2023-01-20T10:45:53;2.25;2.25;1.00
65383;PMS5003;51986;52.788;41.368;2023-01-20T10:57:04;1.75;1.00;0.00
65383;PMS5003;51986;52.788;41.368;2023-01-20T11:02:25;0.00;0.00;0.00
65383;PMS5003;51986;52.788;41.368;2023-01-20T11:04:58;3.00;2.75;0.00
65383;PMS5003;51986;52.788;41.368;2023-01-20T11:07:40;3.75;3.75;1.00
65383;PMS5003;51986;52.788;41.368;2023-01-20T11:10:20;0.50;0.00;0.00
65383;PMS5003;51986;52.788;41.368;2023-01-20T11:12:58;0.00;0.00;0.00
65383;PMS5003;51986;52.788;41.368;2023-01-20T11:15:28;2.00;1.00;0.00
65383;PMS5003;51986;52.788;41.368;2023-01-20T11:23:21;1.00;1.00;0.00
65383;PMS5003;51986;52.788;41.368;2023-01-20T11:25:53;0.00;0.00;0.00
65383;PMS5003;51986;52.788;41.368;2023-01-20T11:28:25;0.25;0.00;0.00
65383;PMS5003;51986;52.788;41.368;2023-01-20T11:30:54;0.00;0.00;0.00
65383;PMS5003;51986;52.788;41.368;2023-01-20T11:33:24;0.25;0.00;0.00
65383;PMS5003;51986;52.788;41.368;2023-01-20T11:36:06;0.00;0.00;0.00
65383;PMS5003;51986;52.788;41.368;2023-01-20T11:38:46;0.00;0.00;0.00
65383;PMS5003;51986;52.788;41.368;2023-01-20T11:41:18;1.50;1.50;0.00
65383;PMS5003;51986;52.788;41.368;2023-01-20T11:43:54;0.00;0.00;0.00
65383;PMS5003;51986;52.788;41.368;2023-01-20T11:49:05;0.00;0.00;0.00
65383;PMS5003;51986;52.788;41.368;2023-01-20T11:51:54;0.00;0.00;0.00
65383;PMS5003;51986;52.788;41.368;2023-01-20T11:54:23;0.00;0.00;0.00
65383;PMS5003;51986;52.788;41.368;2023-01-20T11:56:53;0.00;0.00;0.00
65383;PMS5003;51986;52.788;41.368;2023-01-20T11:59:29;0.00;0.00;0.00
65383;PMS5003;51986;52.788;41.368;2023-01-20T12:10:02;0.00;0.00;0.00
65383;PMS5003;51986;52.788;41.368;2023-01-20T12:12:41;0.00;0.00;0.00
65383;PMS5003;51986;52.788;41.368;2023-01-20T12:15:23;0.00;0.00;0.00
65383;PMS5003;51986;52.788;41.368;2023-01-20T12:25:55;0.00;0.00;0.00
65383;PMS5003;51986;52.788;41.368;2023-01-20T12:31:08;3.00;1.00;0.00
65383;PMS5003;51986;52.788;41.368;2023-01-20T12:33:39;2.00;2.00;1.00
65383;PMS5003;51986;52.788;41.368;2023-01-20T12:42:31;0.00;0.00;0.00
65383;PMS5003;51986;52.788;41.368;2023-01-20T12:51:18;0.00;0.00;0.00
65383;PMS5003;51986;52.788;41.368;2023-01-20T13:14:19;0.00;0.00;0.00
65383;PMS5003;51986;52.788;41.368;2023-01-20T13:19:31;1.00;0.00;0.00
65383;PMS5003;51986;52.788;41.368;2023-01-20T13:22:09;0.00;0.00;0.00
65383;PMS5003;51986;52.788;41.368;2023-01-20T13:24:49;0.00;0.00;0.00
65383;PMS5003;51986;52.788;41.368;2023-01-20T13:27:26;0.00;0.00;0.00
65383;PMS5003;51986;52.788;41.368;2023-01-20T13:29:56;0.00;0.00;0.00
65383;PMS5003;51986;52.788;41.368;2023-01-20T13:32:41;0.00;0.00;0.00
65383;PMS5003;51986;52.788;41.368;2023-01-20T13:38:02;0.00;0.00;0.00
65383;PMS5003;51986;52.788;41.368;2023-01-20T13:43:48;1.00;0.50;0.00
65383;PMS5003;51986;52.788;41.368;2023-01-20T13:46:35;0.00;0.00;0.00
65383;PMS5003;51986;52.788;41.368;2023-01-20T13:51:44;0.00;0.00;0.00
65383;PMS5003;51986;52.788;41.368;2023-01-20T13:56:51;0.00;0.00;0.00
65383;PMS5003;51986;52.788;41.368;2023-01-20T13:59:18;0.00;0.00;0.00
65383;PMS5003;51986;52.788;41.368;2023-01-20T14:01:45;0.00;0.00;0.00
65383;PMS5003;51986;52.788;41.368;2023-01-20T14:04:16;0.00;0.00;0.00
65383;PMS5003;51986;52.788;41.368;2023-01-20T14:06:45;0.00;0.00;0.00
65383;PMS5003;51986;52.788;41.368;2023-01-20T14:09:23;0.00;0.00;0.00
65383;PMS5003;51986;52.788;41.368;2023-01-20T14:11:55;0.00;0.00;0.00
65383;PMS5003;51986;52.788;41.368;2023-01-20T14:14:24;0.00;0.00;0.00
65383;PMS5003;51986;52.788;41.368;2023-01-20T14:16:52;0.25;0.25;0.00
65383;PMS5003;51986;52.788;41.368;2023-01-20T14:19:29;0.00;0.00;0.00
65383;PMS5003;51986;52.788;41.368;2023-01-20T14:22:01;0.00;0.00;0.00
65383;PMS5003;51986;52.788;41.368;2023-01-20T14:27:21;0.00;0.00;0.00
65383;PMS5003;51986;52.788;41.368;2023-01-20T14:29:49;0.00;0.00;0.00
65383;PMS5003;51986;52.788;41.368;2023-01-20T14:32:18;0.00;0.00;0.00
65383;PMS5003;51986;52.788;41.368;2023-01-20T14:34:51;0.00;0.00;0.00
65383;PMS5003;51986;52.788;41.368;2023-01-20T14:39:56;0.00;0.00;0.00
65383;PMS5003;51986;52.788;41.368;2023-01-20T14:42:27;1.00;0.00;0.00
65383;PMS5003;51986;52.788;41.368;2023-01-20T14:44:55;0.00;0.00;0.00
65383;PMS5003;51986;52.788;41.368;2023-01-20T14:47:24;0.00;0.00;0.00
65383;PMS5003;51986;52.788;41.368;2023-01-20T14:49:52;0.00;0.00;0.00
65383;PMS5003;51986;52.788;41.368;2023-01-20T14:52:21;1.00;1.00;0.00
65383;PMS5003;51986;52.788;41.368;2023-01-20T14:54:52;0.00;0.00;0.00
65383;PMS5003;51986;52.788;41.368;2023-01-20T14:57:22;0.00;0.00;0.00
65383;PMS5003;51986;52.788;41.368;2023-01-20T15:02:39;0.00;0.00;0.00
65383;PMS5003;51986;52.788;41.368;2023-01-20T15:05:22;0.00;0.00;0.00
65383;PMS5003;51986;52.788;41.368;2023-01-20T15:10:44;0.00;0.00;0.00
65383;PMS5003;51986;52.788;41.368;2023-01-20T15:13:27;0.00;0.00;0.00
65383;PMS5003;51986;52.788;41.368;2023-01-20T15:16:28;0.00;0.00;0.00
65383;PMS5003;51986;52.788;41.368;2023-01-20T15:21:40;0.00;0.00;0.00
65383;PMS5003;51986;52.788;41.368;2023-01-20T15:24:12;0.00;0.00;0.00
65383;PMS5003;51986;52.788;41.368;2023-01-20T15:26:41;0.00;0.00;0.00
65383;PMS5003;51986;52.788;41.368;2023-01-20T15:29:18;0.00;0.00;0.00
65383;PMS5003;51986;52.788;41.368;2023-01-20T15:31:46;0.00;0.00;0.00
65383;PMS5003;51986;52.788;41.368;2023-01-20T15:34:13;0.00;0.00;0.00
65383;PMS5003;51986;52.788;41.368;2023-01-20T15:36:40;0.00;0.00;0.00
65383;PMS5003;51986;52.788;41.368;2023-01-20T15:39:10;0.00;0.00;0.00
65383;PMS5003;51986;52.788;41.368;2023-01-20T15:41:41;0.00;0.00;0.00
65383;PMS5003;51986;52.788;41.368;2023-01-20T15:44:08;0.00;0.00;0.00
65383;PMS5003;51986;52.788;41.368;2023-01-20T15:46:35;0.00;0.00;0.00
65383;PMS5003;51986;52.788;41.368;2023-01-20T15:49:02;0.00;0.00;0.00
65383;PMS5003;51986;52.788;41.368;2023-01-20T15:51:29;0.00;0.00;0.00
65383;PMS5003;51986;52.788;41.368;2023-01-20T15:53:56;0.00;0.00;0.00
65383;PMS5003;51986;52.788;41.368;2023-01-20T15:56:28;0.00;0.00;0.00
65383;PMS5003;51986;52.788;41.368;2023-01-20T15:58:56;0.00;0.00;0.00
65383;PMS5003;51986;52.788;41.368;2023-01-20T16:01:24;0.00;0.00;0.00
65383;PMS5003;51986;52.788;41.368;2023-01-20T16:03:52;0.00;0.00;0.00
65383;PMS5003;51986;52.788;41.368;2023-01-20T16:06:22;1.00;0.00;0.00
65383;PMS5003;51986;52.788;41.368;2023-01-20T16:08:59;0.00;0.00;0.00
65383;PMS5003;51986;52.788;41.368;2023-01-20T16:11:27;0.00;0.00;0.00
65383;PMS5003;51986;52.788;41.368;2023-01-20T16:13:55;0.00;0.00;0.00
65383;PMS5003;51986;52.788;41.368;2023-01-20T16:16:22;0.00;0.00;0.00
65383;PMS5003;51986;52.788;41.368;2023-01-20T16:18:49;0.00;0.00;0.00
65383;PMS5003;51986;52.788;41.368;2023-01-20T16:21:17;0.00;0.00;0.00
65383;PMS5003;51986;52.788;41.368;2023-01-20T16:23:46;0.00;0.00;0.00
65383;PMS5003;51986;52.788;41.368;2023-01-20T16:28:46;0.00;0.00;0.00
65383;PMS5003;51986;52.788;41.368;2023-01-20T16:31:14;0.00;0.00;0.00
65383;PMS5003;51986;52.788;41.368;2023-01-20T16:33:41;0.00;0.00;0.00
65383;PMS5003;51986;52.788;41.368;2023-01-20T16:36:12;0.00;0.00;0.00
65383;PMS5003;51986;52.788;41.368;2023-01-20T16:38:40;0.00;0.00;0.00
65383;PMS5003;51986;52.788;41.368;2023-01-20T16:41:24;0.00;0.00;0.00
65383;PMS5003;51986;52.788;41.368;2023-01-20T16:43:53;0.00;0.00;0.00
65383;PMS5003;51986;52.788;41.368;2023-01-20T16:46:22;0.00;0.00;0.00
65383;PMS5003;51986;52.788;41.368;2023-01-20T16:48:53;0.00;0.00;0.00
65383;PMS5003;51986;52.788;41.368;2023-01-20T16:51:21;0.00;0.00;0.00
65383;PMS5003;51986;52.788;41.368;2023-01-20T16:53:48;0.00;0.00;0.00
65383;PMS5003;51986;52.788;41.368;2023-01-20T16:56:16;0.00;0.00;0.00
65383;PMS5003;51986;52.788;41.368;2023-01-20T16:58:48;0.00;0.00;0.00
65383;PMS5003;51986;52.788;41.368;2023-01-20T17:01:17;0.00;0.00;0.00
65383;PMS5003;51986;52.788;41.368;2023-01-20T17:03:46;0.00;0.00;0.00
65383;PMS5003;51986;52.788;41.368;2023-01-20T17:06:14;0.00;0.00;0.00
65383;PMS5003;51986;52.788;41.368;2023-01-20T17:08:46;0.00;0.00;0.00
65383;PMS5003;51986;52.788;41.368;2023-01-20T17:11:31;0.00;0.00;0.00